JM-0012 weather

CLOSED Braco Airfield
Cornwall County, Jamaica

Public forecast

Using degrees Celsius for public forecast. Weather courtesy of forecast.io.

Closest aviation weather report (METAR) to Braco Airfield

Closest report is Sangster International Airport, 24.3 nm (44.9 km) W. Retrieved 2020/06/04 01:00 UTC (20 minutes ago):

MKJS 040100Z 19004KT 9999 FEW022 29/21 Q1012

Closest aviation forecast (TAF) to Braco Airfield

Closest forecast is Sangster International Airport, 24.3 nm (44.9 km) W. Retrieved 2020-06-04 00:13 UTC (1 hour ago):

TAF MKJS 032315Z 0400/0424 14005KT 9999 FEW022 BECMG 0413/0415 08020KT PROB30 TEMPO 0418/0424 TSRA SCT020 FEW022CB